Time;durP1;ratioP1;P1;durP2;ratioP2;P2;SDS_P1;SDS_P2;PMS_P1;PMS_P2;Temp;Humidity;BMP_temperature;BMP_pressure;BME280_temperature;BME280_humidity;BME280_pressure;Samples;Min_cycle;Max_cycle;Signal;HPM_P1;HPM_P2
2022/08/21 00:01:19;;;;;;;14.52;7.70;;;;;;;20.27;76.27;95873.72;5114610;28;20048;-60
2022/08/21 00:03:47;;;;;;;10.95;6.75;;;;;;;20.18;76.76;95885.16;5114657;28;20047;-59
2022/08/21 00:06:15;;;;;;;13.40;7.22;;;;;;;20.14;77.27;95879.25;5114482;28;20089;-61
2022/08/21 00:08:42;;;;;;;10.88;6.70;;;;;;;20.17;76.58;95888.78;5114415;28;20047;-59
2022/08/21 00:11:10;;;;;;;11.70;7.28;;;;;;;20.13;77.33;95882.91;5114059;28;20043;-61
2022/08/21 00:13:38;;;;;;;13.93;7.30;;;;;;;20.20;76.50;95889.34;5114451;28;20056;-60
2022/08/21 00:16:05;;;;;;;14.18;7.32;;;;;;;20.23;76.39;95904.19;5114198;28;20051;-58
2022/08/21 00:18:33;;;;;;;11.50;7.38;;;;;;;20.24;75.93;95897.91;5114417;28;20050;-59
2022/08/21 00:21:02;;;;;;;11.65;7.32;;;;;;;20.34;77.22;95900.56;5114296;28;20144;-59
2022/08/21 00:23:29;;;;;;;11.90;7.13;;;;;;;20.47;77.67;95889.72;5113790;28;20054;-59
2022/08/21 00:25:57;;;;;;;13.15;7.32;;;;;;;20.61;76.48;95885.81;5113780;28;20439;-58
2022/08/21 00:28:24;;;;;;;12.73;7.00;;;;;;;20.75;77.84;95884.59;5113742;28;20047;-59
2022/08/21 00:30:52;;;;;;;14.00;7.43;;;;;;;20.86;77.87;95874.81;5114142;28;20048;-61
2022/08/21 00:33:19;;;;;;;12.43;7.05;;;;;;;20.95;77.17;95866.84;5114375;28;20100;-62
2022/08/21 00:35:46;;;;;;;14.30;7.43;;;;;;;20.88;75.77;95865.72;5114328;28;20052;-61
2022/08/21 00:38:14;;;;;;;12.38;6.28;;;;;;;20.89;75.00;95880.66;5114303;28;20079;-58
2022/08/21 00:40:45;;;;;;;8.80;6.50;;;;;;;20.86;75.46;95880.13;5113240;28;20092;-60
2022/08/21 00:43:15;;;;;;;18.45;7.45;;;;;;;20.91;76.18;95877.91;5114152;27;20054;-63
2022/08/21 00:45:43;;;;;;;12.57;6.93;;;;;;;20.94;75.63;95883.78;5113805;28;20416;-59
2022/08/21 00:48:10;;;;;;;14.15;6.90;;;;;;;21.01;74.75;95886.72;5114044;28;20051;-56
2022/08/21 00:50:43;;;;;;;14.30;6.70;;;;;;;21.11;75.80;95889.38;5113391;28;20126;-54
2022/08/21 00:53:13;;;;;;;12.07;7.63;;;;;;;21.20;76.02;95891.19;5113841;28;20043;-56
2022/08/21 00:55:42;;;;;;;12.35;6.95;;;;;;;21.23;75.92;95879.44;5114035;28;20413;-59
2022/08/21 00:58:12;;;;;;;9.30;7.07;;;;;;;21.16;75.52;95886.31;5112816;28;20096;-60
2022/08/21 01:00:42;;;;;;;13.55;7.88;;;;;;;21.15;76.36;95860.69;5113444;28;20043;-59
2022/08/21 01:03:14;;;;;;;15.32;8.25;;;;;;;21.08;76.60;95839.97;5113757;28;20505;-54
2022/08/21 01:05:42;;;;;;;15.70;7.75;;;;;;;20.80;74.00;95844.31;5113673;28;20102;-56
2022/08/21 01:08:11;;;;;;;19.73;7.75;;;;;;;20.70;75.05;95860.22;5113282;28;20116;-61
2022/08/21 01:10:38;;;;;;;18.13;8.50;;;;;;;20.66;77.29;95850.88;5113548;28;20078;-59
2022/08/21 01:13:09;;;;;;;17.65;7.68;;;;;;;20.47;76.59;95846.38;5113622;28;20516;-59
2022/08/21 01:15:38;;;;;;;27.55;8.00;;;;;;;20.22;76.58;95828.16;5113772;28;20058;-59
2022/08/21 01:18:09;;;;;;;15.80;5.68;;;;;;;20.01;74.98;95821.09;5112953;28;20047;-63
2022/08/21 01:20:37;;;;;;;21.88;6.93;;;;;;;19.76;77.23;95809.13;5113444;28;20048;-62
2022/08/21 01:23:06;;;;;;;16.38;5.60;;;;;;;19.68;75.35;95785.91;5113433;28;20048;-60
2022/08/21 01:25:35;;;;;;;17.33;6.30;;;;;;;19.61;77.30;95777.66;5113295;28;20496;-59
2022/08/21 01:28:07;;;;;;;20.83;4.95;;;;;;;19.53;76.52;95759.75;5113058;28;20044;-62
2022/08/21 01:30:36;;;;;;;12.88;5.63;;;;;;;19.52;77.90;95759.88;5113419;28;20047;-58
2022/08/21 01:33:03;;;;;;;22.75;6.28;;;;;;;19.48;77.95;95761.97;5113293;28;20051;-60
2022/08/21 01:35:31;;;;;;;16.13;4.53;;;;;;;19.40;75.67;95756.47;5113338;28;20104;-60
2022/08/21 01:37:58;;;;;;;18.77;5.80;;;;;;;19.33;76.75;95750.88;5114385;28;20397;-65
2022/08/21 01:40:26;;;;;;;13.88;4.85;;;;;;;19.24;77.87;95754.31;5117100;28;20466;-64
2022/08/21 01:42:54;;;;;;;16.48;5.38;;;;;;;19.15;79.13;95753.31;5117639;28;20537;-59
2022/08/21 01:45:21;;;;;;;12.10;5.50;;;;;;;19.09;78.66;95754.66;5117375;28;20048;-57
2022/08/21 01:47:48;;;;;;;13.55;5.75;;;;;;;19.04;79.03;95746.22;5117570;28;20066;-60
2022/08/21 01:50:18;;;;;;;16.27;6.30;;;;;;;19.00;80.83;95750.13;5116688;28;20071;-57
2022/08/21 01:52:46;;;;;;;14.70;7.22;;;;;;;18.99;81.71;95751.91;5117175;28;20092;-60
2022/08/21 01:55:15;;;;;;;16.15;7.15;;;;;;;19.04;82.14;95751.53;5117133;28;20071;-66
2022/08/21 01:57:44;;;;;;;13.75;7.05;;;;;;;19.16;80.41;95766.44;5116910;28;20515;-65
2022/08/21 02:00:16;;;;;;;16.08;7.93;;;;;;;19.25;83.34;95783.34;5117112;28;20044;-66
2022/08/21 02:02:44;;;;;;;13.02;7.10;;;;;;;19.35;82.85;95782.56;5117045;28;20043;-67
2022/08/21 02:05:13;;;;;;;12.00;7.35;;;;;;;19.48;82.72;95774.38;5116929;28;20047;-64
2022/08/21 02:07:41;;;;;;;18.65;6.75;;;;;;;19.64;82.35;95771.25;5116828;28;20055;-63
2022/08/21 02:10:10;;;;;;;13.57;6.88;;;;;;;19.74;81.18;95773.94;5116838;28;20051;-66
2022/08/21 02:12:37;;;;;;;19.50;7.57;;;;;;;19.87;81.44;95777.16;5117005;28;20097;-61
2022/08/21 02:15:09;;;;;;;12.70;6.50;;;;;;;19.88;79.80;95784.19;5117011;28;20126;-64
2022/08/21 02:17:41;;;;;;;16.85;7.03;;;;;;;19.95;80.21;95785.31;5117618;27;20075;-68
2022/08/21 02:20:10;;;;;;;18.25;6.63;;;;;;;20.04;81.03;95796.09;5116749;28;20039;-65
2022/08/21 02:22:37;;;;;;;15.80;7.75;;;;;;;20.07;80.49;95798.50;5116648;28;20059;-63
2022/08/21 02:25:05;;;;;;;17.85;6.18;;;;;;;20.11;78.39;95804.38;5116694;28;20096;-67
2022/08/21 02:27:39;;;;;;;16.88;6.57;;;;;;;20.06;77.94;95805.63;5117608;27;20054;-63
2022/08/21 02:30:09;;;;;;;13.00;6.10;;;;;;;20.09;78.05;95809.81;5116742;27;20044;-63
2022/08/21 02:32:36;;;;;;;;;;;;;;;20.16;78.45;95815.41;5116966;27;20119;-63
2022/08/21 02:35:04;;;;;;;14.82;6.47;;;;;;;20.25;78.96;95806.63;5116675;28;19920;-61
2022/08/21 02:37:31;;;;;;;13.68;6.20;;;;;;;20.28;78.75;95813.47;5117392;27;20039;-63
2022/08/21 02:40:00;;;;;;;14.65;6.22;;;;;;;20.26;78.34;95810.97;5116203;28;20523;-64
2022/08/21 02:42:27;;;;;;;17.25;6.30;;;;;;;20.23;77.69;95813.91;5116176;28;20081;-64
2022/08/21 02:44:54;;;;;;;11.23;6.05;;;;;;;20.23;78.22;95818.38;5116372;28;20044;-64
2022/08/21 02:47:22;;;;;;;17.65;6.07;;;;;;;20.26;78.10;95826.06;5115983;28;20058;-61
2022/08/21 02:49:50;;;;;;;12.48;6.30;;;;;;;20.24;77.83;95814.75;5114630;28;20093;-65
2022/08/21 02:52:17;;;;;;;13.93;6.18;;;;;;;20.16;77.84;95826.88;5116100;28;20067;-65
2022/08/21 02:54:44;;;;;;;15.23;6.78;;;;;;;20.19;78.72;95834.56;5115910;28;20047;-67
2022/08/21 02:57:11;;;;;;;10.57;6.10;;;;;;;20.25;79.12;95845.59;5116324;28;20117;-63
2022/08/21 02:59:39;;;;;;;19.13;6.78;;;;;;;20.27;78.93;95847.19;5115640;28;20047;-64
2022/08/21 03:02:06;;;;;;;13.48;6.55;;;;;;;20.27;78.73;95841.03;5116156;28;20057;-62
2022/08/21 03:04:34;;;;;;;13.60;6.35;;;;;;;20.21;78.93;95847.72;5115759;28;20101;-66
2022/08/21 03:07:02;;;;;;;15.93;7.40;;;;;;;20.13;78.79;95860.81;5115187;28;20047;-64
2022/08/21 03:09:29;;;;;;;18.50;6.95;;;;;;;20.14;78.70;95858.03;5115419;28;20050;-64
2022/08/21 03:11:57;;;;;;;15.38;7.55;;;;;;;20.19;79.28;95858.47;5115444;28;20050;-66
2022/08/21 03:14:24;;;;;;;19.60;7.25;;;;;;;20.24;78.34;95871.34;5115701;28;20130;-67
2022/08/21 03:16:51;;;;;;;12.65;7.10;;;;;;;20.26;79.03;95868.56;5115748;28;20135;-67
2022/08/21 03:19:18;;;;;;;11.35;7.75;;;;;;;20.21;79.72;95876.91;5115341;28;20058;-68
2022/08/21 03:21:47;;;;;;;16.15;7.30;;;;;;;20.26;79.05;95881.81;5115312;28;20066;-64
2022/08/21 03:24:14;;;;;;;14.45;6.95;;;;;;;20.31;79.38;95880.44;5115409;28;20493;-66
2022/08/21 03:26:42;;;;;;;12.85;6.35;;;;;;;20.31;78.13;95872.47;5115329;28;20051;-66
2022/08/21 03:29:09;;;;;;;16.33;7.43;;;;;;;20.28;78.72;95872.75;5115303;28;20527;-68
2022/08/21 03:31:36;;;;;;;18.27;8.25;;;;;;;20.19;79.56;95876.19;5115284;28;20043;-65
2022/08/21 03:34:03;;;;;;;11.82;7.25;;;;;;;20.24;79.29;95891.72;5115161;28;20051;-64
2022/08/21 03:36:31;;;;;;;14.25;7.20;;;;;;;20.30;78.50;95891.19;5115328;28;20105;-65
2022/08/21 03:38:59;;;;;;;11.93;7.30;;;;;;;20.36;79.00;95898.63;5114512;28;20048;-64
2022/08/21 03:41:26;;;;;;;12.98;7.35;;;;;;;20.38;78.96;95901.16;5114872;28;20124;-63
2022/08/21 03:43:53;;;;;;;13.30;7.95;;;;;;;20.37;78.98;95910.06;5115045;28;20125;-61
2022/08/21 03:46:20;;;;;;;17.05;7.90;;;;;;;20.36;79.38;95909.25;5115120;28;20047;-62
2022/08/21 03:48:48;;;;;;;15.85;7.53;;;;;;;20.35;79.21;95912.88;5114669;28;20517;-64
2022/08/21 03:51:15;;;;;;;10.18;7.25;;;;;;;20.37;79.40;95926.00;5114844;28;20047;-65
2022/08/21 03:53:42;;;;;;;12.73;7.68;;;;;;;20.36;79.07;95921.69;5115043;27;20047;-63
2022/08/21 03:56:11;;;;;;;13.52;8.02;;;;;;;20.39;78.50;95921.41;5115030;28;20070;-63
2022/08/21 03:58:39;;;;;;;14.82;9.15;;;;;;;20.43;78.39;95917.50;5114607;28;20073;-63
2022/08/21 04:01:07;;;;;;;15.45;8.40;;;;;;;20.51;78.69;95916.81;5114255;28;20039;-62
2022/08/21 04:03:36;;;;;;;22.95;8.18;;;;;;;20.55;78.39;95913.78;5114615;28;20130;-63
2022/08/21 04:06:04;;;;;;;15.40;7.97;;;;;;;20.49;77.65;95916.97;5114214;28;20044;-62
2022/08/21 04:08:31;;;;;;;9.95;8.13;;;;;;;20.44;77.95;95914.72;5114647;27;20451;-66
2022/08/21 04:10:59;;;;;;;11.35;8.35;;;;;;;20.48;77.81;95915.28;5114143;28;20044;-65
2022/08/21 04:13:28;;;;;;;10.95;8.23;;;;;;;20.52;77.81;95916.69;5114533;28;20087;-64
2022/08/21 04:15:57;;;;;;;18.30;7.95;;;;;;;20.54;77.95;95917.41;5114557;28;20051;-66
2022/08/21 04:18:25;;;;;;;12.30;9.25;;;;;;;20.57;78.10;95919.78;5114320;28;20055;-65
2022/08/21 04:20:55;;;;;;;15.10;7.55;;;;;;;20.57;78.46;95914.50;5113752;28;20050;-63
2022/08/21 04:23:23;;;;;;;15.43;8.70;;;;;;;20.61;78.82;95911.53;5114339;28;20052;-64
2022/08/21 04:25:50;;;;;;;9.93;8.32;;;;;;;20.64;78.88;95911.25;5114366;28;20058;-64
2022/08/21 04:28:17;;;;;;;15.57;7.20;;;;;;;20.63;78.81;95909.59;5114293;28;20126;-61
2022/08/21 04:30:46;;;;;;;12.80;8.48;;;;;;;20.70;79.07;95908.06;5114307;27;20123;-65
2022/08/21 04:33:14;;;;;;;20.00;8.13;;;;;;;20.69;77.67;95901.06;5113763;28;20050;-62
2022/08/21 04:35:42;;;;;;;17.52;8.15;;;;;;;20.74;78.09;95900.66;5114029;28;20130;-63
2022/08/21 04:38:09;;;;;;;19.58;7.60;;;;;;;20.86;78.99;95904.03;5114530;28;20134;-62
2022/08/21 04:40:37;;;;;;;14.32;7.85;;;;;;;20.86;78.74;95901.38;5114119;28;20447;-62
2022/08/21 04:43:07;;;;;;;12.85;7.22;;;;;;;20.91;78.26;95910.63;5113921;28;20451;-63
2022/08/21 04:45:36;;;;;;;14.17;7.07;;;;;;;20.99;78.04;95906.44;5114020;28;20047;-65
2022/08/21 04:48:09;;;;;;;9.90;6.57;;;;;;;21.05;77.78;95903.25;5113821;28;20649;-61
2022/08/21 04:50:41;;;;;;;13.52;7.45;;;;;;;21.11;77.20;95907.16;5114036;28;20079;-63
2022/08/21 04:53:11;;;;;;;15.55;6.90;;;;;;;21.19;77.01;95904.66;5113991;28;20497;-62
2022/08/21 04:55:39;;;;;;;15.57;7.05;;;;;;;21.25;77.55;95892.59;5114949;27;20040;-65
2022/08/21 04:58:07;;;;;;;14.80;6.75;;;;;;;21.18;76.40;95893.16;5114987;28;20439;-63
2022/08/21 05:00:35;;;;;;;8.60;6.35;;;;;;;21.25;76.69;95892.59;5125803;27;20052;-66
2022/08/21 05:03:05;;;;;;;10.48;6.78;;;;;;;21.36;78.02;95888.94;5114528;27;20043;-62
2022/08/21 05:05:33;;;;;;;15.00;6.60;;;;;;;21.37;76.86;95895.94;5113950;27;20044;-65
2022/08/21 05:08:03;;;;;;;10.23;6.05;;;;;;;21.26;77.41;95899.59;5113594;28;20051;-64
2022/08/21 05:10:32;;;;;;;14.80;6.68;;;;;;;21.13;75.34;95898.03;5113760;28;20097;-63
2022/08/21 05:13:01;;;;;;;12.75;7.40;;;;;;;21.19;77.42;95894.84;5114165;28;20047;-61
2022/08/21 05:15:30;;;;;;;10.38;6.25;;;;;;;21.28;77.57;95898.47;5113623;28;20050;-62
2022/08/21 05:17:57;;;;;;;18.08;6.38;;;;;;;21.32;76.28;95899.88;5113499;28;20044;-66
2022/08/21 05:20:26;;;;;;;15.82;6.53;;;;;;;21.50;76.58;95898.31;5116945;28;20070;-65
2022/08/21 05:22:53;;;;;;;15.85;7.55;;;;;;;21.65;77.16;95899.56;5133663;27;20558;-65
2022/08/21 05:25:21;;;;;;;13.30;6.50;;;;;;;21.79;75.85;95889.47;5134409;27;20043;-60
2022/08/21 05:27:48;;;;;;;10.35;6.22;;;;;;;21.91;75.47;95900.78;5133624;27;20058;-61
2022/08/21 05:30:15;;;;;;;11.32;5.85;;;;;;;22.02;74.79;95897.06;5133178;27;20178;-63
2022/08/21 05:32:43;;;;;;;14.02;7.00;;;;;;;22.01;75.03;95898.91;5133527;27;20055;-63
2022/08/21 05:35:11;;;;;;;10.57;6.50;;;;;;;22.03;74.24;95901.44;5134185;27;20545;-63
2022/08/21 05:37:39;;;;;;;17.00;6.90;;;;;;;22.06;73.85;95907.28;5133879;27;20051;-63
2022/08/21 05:40:09;;;;;;;11.30;7.07;;;;;;;22.08;73.38;95915.13;5132885;27;20069;-63
2022/08/21 05:42:36;;;;;;;15.88;7.25;;;;;;;22.14;73.85;95905.72;5133733;27;20047;-61
2022/08/21 05:45:04;;;;;;;13.80;6.97;;;;;;;22.27;74.74;95913.38;5130893;27;20062;-58
2022/08/21 05:47:31;;;;;;;18.08;6.97;;;;;;;22.28;71.98;95907.91;5133904;27;20515;-65
2022/08/21 05:49:59;;;;;;;15.00;7.30;;;;;;;22.20;72.19;95908.66;5123474;27;20408;-63
2022/08/21 05:52:26;;;;;;;16.23;7.13;;;;;;;22.24;72.94;95913.69;5118997;28;20035;-61
2022/08/21 05:54:55;;;;;;;11.80;6.72;;;;;;;22.28;72.95;95917.72;5133131;27;20035;-66
2022/08/21 05:57:25;;;;;;;15.13;6.82;;;;;;;22.15;73.18;95924.22;5133435;27;20129;-64
2022/08/21 05:59:52;;;;;;;12.15;7.30;;;;;;;22.19;74.25;95925.59;5131940;27;20100;-63
2022/08/21 06:02:20;;;;;;;21.90;7.53;;;;;;;22.25;73.48;95928.66;5133430;27;20088;-67
2022/08/21 06:04:49;;;;;;;13.80;8.30;;;;;;;22.29;75.18;95927.38;5131077;27;20109;-63
2022/08/21 06:07:16;;;;;;;14.32;8.00;;;;;;;22.36;76.43;95932.97;5114858;27;20044;-59
2022/08/21 06:09:44;;;;;;;22.83;7.65;;;;;;;22.41;76.80;95922.69;5129369;28;20051;-61
2022/08/21 06:12:14;;;;;;;11.65;7.40;;;;;;;22.40;74.36;95921.88;5133715;27;20039;-64
2022/08/21 06:14:42;;;;;;;16.02;7.40;;;;;;;22.52;72.76;95917.19;5133205;27;20039;-68
2022/08/21 06:17:13;;;;;;;15.40;7.13;;;;;;;22.58;73.79;95915.78;5133768;27;20051;-68
2022/08/21 06:19:42;;;;;;;12.38;6.22;;;;;;;22.56;71.39;95918.56;5130524;27;20051;-64
2022/08/21 06:22:09;;;;;;;13.38;7.13;;;;;;;22.45;71.74;95927.59;5113281;28;20070;-63
2022/08/21 06:24:37;;;;;;;10.35;6.72;;;;;;;22.50;72.13;95918.31;5113577;28;20135;-66
2022/08/21 06:27:07;;;;;;;17.35;6.72;;;;;;;22.52;71.24;95924.34;5124494;27;20039;-67
2022/08/21 06:29:36;;;;;;;11.00;6.32;;;;;;;22.57;71.14;95924.72;5137403;27;20050;-62
2022/08/21 06:32:06;;;;;;;9.00;6.50;;;;;;;22.66;71.33;95926.53;5137302;27;20047;-66
2022/08/21 06:34:36;;;;;;;13.27;7.22;;;;;;;22.72;71.96;95935.75;5137112;27;20043;-61
2022/08/21 06:37:04;;;;;;;11.40;6.75;;;;;;;22.79;72.06;95938.66;5130636;27;20047;-66
2022/08/21 06:39:32;;;;;;;12.93;6.95;;;;;;;22.82;72.36;95933.03;5116883;27;20077;-64
2022/08/21 06:42:00;;;;;;;18.80;7.20;;;;;;;22.84;72.22;95942.56;5116382;28;20040;-61
2022/08/21 06:44:28;;;;;;;20.85;7.55;;;;;;;22.84;72.09;95934.56;5116425;28;20047;-68
2022/08/21 06:46:58;;;;;;;14.10;7.18;;;;;;;22.88;71.46;95935.09;5117183;27;20043;-66
2022/08/21 06:49:26;;;;;;;11.77;7.67;;;;;;;22.84;72.08;95939.03;5116398;27;20083;-66
2022/08/21 06:51:53;;;;;;;20.55;7.72;;;;;;;22.72;71.60;95935.75;5125925;27;20283;-61
2022/08/21 06:54:20;;;;;;;9.90;7.40;;;;;;;22.75;71.69;95932.78;5135105;27;20043;-64
2022/08/21 06:56:47;;;;;;;18.52;8.93;;;;;;;22.74;71.65;95925.78;5136539;27;20408;-67
2022/08/21 06:59:15;;;;;;;14.13;7.82;;;;;;;22.69;71.56;95926.22;5136565;27;20047;-66
2022/08/21 07:01:42;;;;;;;16.15;7.93;;;;;;;22.34;73.91;95917.13;5136315;27;20408;-63
2022/08/21 07:04:11;;;;;;;14.10;7.97;;;;;;;22.11;74.39;95916.66;5135560;27;20043;-62
2022/08/21 07:06:39;;;;;;;15.48;8.73;;;;;;;22.06;75.41;95920.59;5131372;27;20047;-67
2022/08/21 07:09:06;;;;;;;17.40;7.88;;;;;;;22.16;75.19;95911.75;5120125;27;20535;-64
2022/08/21 07:11:36;;;;;;;19.05;8.25;;;;;;;22.01;75.86;95908.72;5119682;27;20072;-66
2022/08/21 07:14:03;;;;;;;13.40;8.63;;;;;;;21.89;77.00;95910.72;5136096;27;20381;-61
2022/08/21 07:16:30;;;;;;;11.32;7.95;;;;;;;21.89;76.69;95913.38;5136274;27;20055;-63
2022/08/21 07:18:58;;;;;;;15.43;8.23;;;;;;;21.98;75.88;95909.00;5136046;27;20072;-66
2022/08/21 07:21:27;;;;;;;19.52;8.48;;;;;;;22.16;75.55;95912.59;5129055;27;20075;-63
2022/08/21 07:23:55;;;;;;;12.63;7.00;;;;;;;22.32;74.78;95911.09;5115741;28;20074;-67
2022/08/21 07:26:25;;;;;;;13.70;7.13;;;;;;;22.49;73.15;95908.66;5115758;28;20054;-64
2022/08/21 07:28:53;;;;;;;14.88;7.55;;;;;;;22.67;72.49;95904.22;5134604;27;20457;-64
2022/08/21 07:31:22;;;;;;;13.38;7.20;;;;;;;22.85;72.76;95896.22;5135804;27;20050;-64
2022/08/21 07:33:51;;;;;;;21.15;8.32;;;;;;;23.05;72.94;95897.91;5135317;27;20050;-69
2022/08/21 07:36:18;;;;;;;20.80;8.23;;;;;;;23.24;73.83;95899.59;5127318;27;20096;-63
2022/08/21 07:38:47;;;;;;;16.30;7.47;;;;;;;23.39;73.19;95897.22;5130470;27;20488;-63
2022/08/21 07:41:17;;;;;;;16.67;8.00;;;;;;;23.48;71.02;95896.31;5134915;27;20054;-66
2022/08/21 07:43:45;;;;;;;13.07;7.33;;;;;;;23.51;69.85;95892.50;5135761;27;20057;-68
2022/08/21 07:46:13;;;;;;;9.68;7.55;;;;;;;23.58;69.09;95893.56;5135644;27;20074;-61
2022/08/21 07:48:41;;;;;;;16.58;7.40;;;;;;;23.68;69.71;95884.59;5133162;27;20043;-64
2022/08/21 07:51:12;;;;;;;14.10;8.27;;;;;;;23.75;69.63;95882.97;5134930;27;20043;-60
2022/08/21 07:53:48;;;;;;;14.20;7.30;;;;;;;23.85;69.92;95885.56;5135258;27;20043;-63
2022/08/21 07:56:20;;;;;;;23.40;8.43;;;;;;;23.86;70.03;95873.88;5135730;27;20536;-57
2022/08/21 07:58:51;;;;;;;11.15;7.82;;;;;;;23.78;70.12;95868.50;5134243;27;20511;-56
2022/08/21 08:01:22;;;;;;;13.52;7.90;;;;;;;23.63;68.82;95858.38;5128639;27;20055;-57
2022/08/21 08:03:52;;;;;;;18.23;7.72;;;;;;;23.50;70.20;95863.31;5114976;28;20180;-57
2022/08/21 08:06:22;;;;;;;13.27;7.75;;;;;;;23.46;70.50;95852.09;5114640;28;20050;-56
2022/08/21 08:08:50;;;;;;;13.60;7.50;;;;;;;23.52;71.63;95855.97;5115408;27;20043;-56
2022/08/21 08:11:22;;;;;;;20.65;7.70;;;;;;;23.40;71.12;95850.91;5113652;28;20083;-56
2022/08/21 08:13:53;;;;;;;21.02;7.28;;;;;;;23.17;70.68;95858.50;5114556;27;20096;-57
2022/08/21 08:16:22;;;;;;;15.05;8.15;;;;;;;23.03;72.43;95855.41;5131171;27;20043;-55
2022/08/21 08:18:51;;;;;;;16.52;7.80;;;;;;;22.97;72.68;95848.84;5134946;27;20053;-56
2022/08/21 08:21:20;;;;;;;13.13;7.68;;;;;;;23.01;71.86;95852.06;5134856;27;20493;-57
2022/08/21 08:23:48;;;;;;;35.20;9.05;;;;;;;23.15;72.63;95847.19;5134895;27;20051;-56
2022/08/21 08:26:16;;;;;;;13.85;6.93;;;;;;;23.28;71.55;95844.09;5119298;27;20401;-55
2022/08/21 08:28:46;;;;;;;11.52;6.93;;;;;;;23.24;70.22;95843.59;5129749;27;20055;-57
2022/08/21 08:31:14;;;;;;;12.70;6.88;;;;;;;23.20;72.29;95843.06;5133782;27;20088;-57
2022/08/21 08:33:43;;;;;;;14.35;7.50;;;;;;;23.26;71.69;95840.78;5122797;27;20051;-56
2022/08/21 08:36:15;;;;;;;10.18;6.40;;;;;;;23.37;71.27;95823.69;5113799;28;20048;-61
2022/08/21 08:38:43;;;;;;;11.82;6.80;;;;;;;23.52;70.52;95823.97;5113932;28;20122;-60
2022/08/21 08:41:15;;;;;;;11.18;6.57;;;;;;;23.77;70.17;95832.94;5113992;28;20065;-60
2022/08/21 08:43:50;;;;;;;12.13;7.07;;;;;;;23.98;69.32;95831.72;5114917;27;20119;-60
2022/08/21 08:46:21;;;;;;;14.02;6.93;;;;;;;24.16;68.24;95828.97;5114012;28;20408;-61
2022/08/21 08:48:52;;;;;;;;;;;;;;;24.31;67.41;95823.00;5113742;28;20055;-61
2022/08/21 08:51:25;;;;;;;9.75;6.70;;;;;;;24.38;68.20;95828.56;5113831;28;20384;-61
2022/08/21 08:53:57;;;;;;;10.50;6.55;;;;;;;24.47;66.38;95825.72;5114772;27;20086;-62
2022/08/21 08:56:33;;;;;;;8.15;6.55;;;;;;;24.59;66.34;95820.09;5113751;28;20048;-62
2022/08/21 08:59:10;;;;;;;13.02;7.15;;;;;;;24.70;66.70;95816.25;5113767;28;20443;-61
2022/08/21 09:01:37;;;;;;;15.60;6.75;;;;;;;24.86;67.94;95815.41;5113738;28;20050;-61
2022/08/21 09:04:05;;;;;;;12.15;6.72;;;;;;;24.99;67.27;95810.44;5117581;27;20043;-62
2022/08/21 09:06:45;;;;;;;12.85;7.82;;;;;;;25.10;68.53;95811.13;5124119;27;20086;-70
2022/08/21 09:09:20;;;;;;;;;;;;;;;25.24;67.51;95806.94;5134708;27;20086;-62
2022/08/21 09:12:03;;;;;;;11.45;7.25;;;;;;;25.33;67.65;95811.28;5134054;27;20364;-60
2022/08/21 09:14:56;;;;;;;13.13;7.75;;;;;;;25.46;68.22;95810.75;5134318;27;20044;-60
2022/08/21 09:17:41;;;;;;;14.43;7.45;;;;;;;25.60;67.28;95814.63;5130891;27;20051;-60
2022/08/21 09:20:19;;;;;;;17.48;8.20;;;;;;;25.65;67.38;95819.47;5134121;27;20065;-62
2022/08/21 09:22:59;;;;;;;11.82;6.50;;;;;;;25.74;66.61;95818.41;5134072;27;20047;-60
2022/08/21 09:25:29;;;;;;;14.37;6.13;;;;;;;25.76;64.47;95815.56;5133128;27;20043;-61
2022/08/21 09:27:57;;;;;;;13.17;6.20;;;;;;;25.72;62.67;95817.75;5119822;27;20046;-62
2022/08/21 09:30:29;;;;;;;11.77;6.45;;;;;;;25.66;63.27;95813.09;5112771;28;20477;-61
2022/08/21 09:32:56;;;;;;;12.15;6.60;;;;;;;25.58;62.39;95805.03;5113382;28;20066;-62
2022/08/21 09:35:25;;;;;;;12.00;7.20;;;;;;;25.59;65.13;95804.03;5124393;28;20043;-60
2022/08/21 09:37:54;;;;;;;9.95;6.55;;;;;;;25.63;64.94;95800.03;5133945;27;20122;-61
2022/08/21 09:40:31;;;;;;;15.38;7.40;;;;;;;25.71;65.62;95801.88;5133834;27;20142;-61
2022/08/21 09:43:01;;;;;;;12.82;7.40;;;;;;;25.71;66.06;95808.03;5133933;27;20126;-61
2022/08/21 09:45:31;;;;;;;10.38;6.90;;;;;;;25.79;65.72;95807.19;5121947;27;20058;-61
2022/08/21 09:48:10;;;;;;;11.43;6.85;;;;;;;25.84;65.46;95810.19;5113206;28;20075;-62
2022/08/21 09:50:38;;;;;;;14.32;7.50;;;;;;;25.77;66.36;95805.69;5113221;28;20047;-61
2022/08/21 09:53:16;;;;;;;10.70;6.68;;;;;;;25.77;66.02;95803.00;5113239;28;20485;-62
2022/08/21 09:58:37;;;;;;;12.15;6.85;;;;;;;25.78;64.73;95810.03;5134281;27;20447;-62
2022/08/21 10:01:13;;;;;;;15.47;6.97;;;;;;;25.74;65.66;95809.56;5128328;27;20123;-60
2022/08/21 10:03:40;;;;;;;10.20;5.93;;;;;;;25.70;64.89;95808.22;5134330;27;20488;-59
2022/08/21 10:06:10;;;;;;;16.02;7.10;;;;;;;25.69;64.06;95806.56;5132061;27;20047;-61
2022/08/21 10:08:41;;;;;;;8.98;6.18;;;;;;;25.71;64.90;95805.34;5116921;27;20413;-62
2022/08/21 10:11:11;;;;;;;9.45;6.50;;;;;;;25.72;65.42;95804.38;5117001;28;20043;-62
2022/08/21 10:13:58;;;;;;;11.38;6.47;;;;;;;25.67;65.81;95800.56;5133200;27;20051;-60
2022/08/21 10:16:37;;;;;;;10.77;6.70;;;;;;;25.68;64.23;95803.06;5137002;27;20039;-62
2022/08/21 10:19:16;;;;;;;8.30;6.25;;;;;;;25.67;64.33;95809.41;5134842;27;20096;-61
2022/08/21 10:21:53;;;;;;;8.68;5.93;;;;;;;25.66;64.31;95802.38;5137244;27;20388;-62
2022/08/21 10:24:26;;;;;;;8.30;6.22;;;;;;;25.62;63.58;95803.72;5135351;27;20083;-60
2022/08/21 10:27:02;;;;;;;14.15;6.18;;;;;;;25.56;63.47;95805.22;5127870;27;20172;-62
2022/08/21 10:29:46;;;;;;;8.43;6.25;;;;;;;25.39;63.27;95798.22;5131112;27;20126;-62
2022/08/21 10:32:38;;;;;;;10.32;5.90;;;;;;;25.38;63.54;95800.06;5136985;27;20077;-60
2022/08/21 10:35:15;;;;;;;11.52;6.40;;;;;;;25.38;64.11;95799.22;5134902;27;20043;-61
2022/08/21 10:38:14;;;;;;;13.57;6.15;;;;;;;25.38;65.68;95794.72;5136434;27;20068;-61
2022/08/21 10:40:50;;;;;;;12.80;6.50;;;;;;;25.29;65.08;95807.28;5131010;27;20051;-62
2022/08/21 10:43:29;;;;;;;15.80;7.65;;;;;;;25.32;65.65;95796.25;5134525;27;20043;-61
2022/08/21 10:46:05;;;;;;;12.50;6.80;;;;;;;25.29;66.23;95801.94;5134589;27;20108;-61
2022/08/21 10:48:38;;;;;;;12.75;7.03;;;;;;;25.31;65.70;95796.41;5119697;27;20051;-61
2022/08/21 10:51:11;;;;;;;17.02;7.22;;;;;;;25.34;66.73;95788.88;5125942;27;20054;-61
2022/08/21 10:53:55;;;;;;;12.85;7.20;;;;;;;25.38;67.44;95788.53;5135528;27;20111;-60
2022/08/21 10:56:25;;;;;;;15.75;7.68;;;;;;;25.35;67.48;95792.38;5115939;27;20047;-60
2022/08/21 10:59:13;;;;;;;13.10;7.63;;;;;;;25.31;66.91;95794.53;5116190;28;20047;-60
2022/08/21 11:01:48;;;;;;;11.40;8.18;;;;;;;25.28;66.74;95794.06;5115977;28;20117;-62
2022/08/21 11:04:36;;;;;;;18.65;7.72;;;;;;;25.28;66.76;95783.38;5115551;28;20051;-62
2022/08/21 11:07:12;;;;;;;11.23;7.72;;;;;;;25.24;66.11;95781.03;5115055;28;20065;-60
2022/08/21 11:09:45;;;;;;;16.45;8.35;;;;;;;25.20;65.40;95777.00;5115944;28;20432;-60
2022/08/21 11:12:24;;;;;;;15.05;7.88;;;;;;;25.27;66.53;95776.31;5115058;28;20055;-62
2022/08/21 11:14:58;;;;;;;17.83;8.40;;;;;;;25.24;65.79;95780.19;5116019;28;20096;-61
2022/08/21 11:17:33;;;;;;;12.88;8.50;;;;;;;25.23;67.58;95773.97;5115973;28;20044;-60
2022/08/21 11:20:09;;;;;;;12.27;8.68;;;;;;;25.21;67.83;95776.00;5115554;28;20047;-59
2022/08/21 11:22:41;;;;;;;9.48;8.13;;;;;;;25.15;68.23;95771.34;5115532;27;20048;-61
2022/08/21 11:25:15;;;;;;;11.90;8.60;;;;;;;25.13;66.47;95765.31;5115442;28;20043;-60
2022/08/21 11:27:46;;;;;;;18.70;8.35;;;;;;;25.14;66.61;95772.34;5115553;28;20500;-60
2022/08/21 11:30:15;;;;;;;18.42;9.23;;;;;;;25.17;65.09;95769.34;5115464;28;20458;-60
2022/08/21 11:32:58;;;;;;;12.63;8.23;;;;;;;25.19;65.65;95756.59;5115283;28;20050;-60
2022/08/21 11:35:37;;;;;;;10.35;7.40;;;;;;;25.14;65.23;95758.97;5115450;28;20043;-60
2022/08/21 11:38:28;;;;;;;9.45;7.13;;;;;;;25.14;65.31;95752.78;5115277;28;20047;-62
2022/08/21 11:41:06;;;;;;;13.23;7.65;;;;;;;25.13;64.65;95746.56;5112324;28;20043;-60
2022/08/21 11:43:39;;;;;;;13.13;6.88;;;;;;;25.20;65.11;95744.91;5115054;28;20459;-60